sensor_id;sensor_type;location;lat;lon;timestamp;P1;durP1;ratioP1;P2;durP2;ratioP2
15876;SDS011;8037;51.666;7.834;2023-07-08T00:00:19;2.30;;;2.00;;
15876;SDS011;8037;51.666;7.834;2023-07-08T00:02:45;2.40;;;2.20;;
15876;SDS011;8037;51.666;7.834;2023-07-08T00:05:12;1.93;;;1.50;;
15876;SDS011;8037;51.666;7.834;2023-07-08T00:07:38;5.13;;;2.10;;
15876;SDS011;8037;51.666;7.834;2023-07-08T00:10:10;3.67;;;2.30;;
15876;SDS011;8037;51.666;7.834;2023-07-08T00:12:37;2.57;;;2.37;;
15876;SDS011;8037;51.666;7.834;2023-07-08T00:15:03;5.10;;;2.00;;
15876;SDS011;8037;51.666;7.834;2023-07-08T00:17:30;3.10;;;2.80;;
15876;SDS011;8037;51.666;7.834;2023-07-08T00:19:56;2.43;;;2.00;;
15876;SDS011;8037;51.666;7.834;2023-07-08T00:22:21;2.80;;;1.87;;
15876;SDS011;8037;51.666;7.834;2023-07-08T00:24:49;2.50;;;2.13;;
15876;SDS011;8037;51.666;7.834;2023-07-08T00:27:16;1.83;;;1.73;;
15876;SDS011;8037;51.666;7.834;2023-07-08T00:29:42;2.80;;;1.97;;
15876;SDS011;8037;51.666;7.834;2023-07-08T00:32:12;3.67;;;2.23;;
15876;SDS011;8037;51.666;7.834;2023-07-08T00:34:39;3.00;;;2.07;;
15876;SDS011;8037;51.666;7.834;2023-07-08T00:37:05;4.60;;;2.10;;
15876;SDS011;8037;51.666;7.834;2023-07-08T00:39:31;1.93;;;1.23;;
15876;SDS011;8037;51.666;7.834;2023-07-08T00:41:58;2.77;;;2.50;;
15876;SDS011;8037;51.666;7.834;2023-07-08T00:44:24;2.03;;;1.83;;
15876;SDS011;8037;51.666;7.834;2023-07-08T00:46:57;3.93;;;2.00;;
15876;SDS011;8037;51.666;7.834;2023-07-08T00:52:15;2.20;;;2.10;;
15876;SDS011;8037;51.666;7.834;2023-07-08T00:54:42;1.70;;;1.60;;
15876;SDS011;8037;51.666;7.834;2023-07-08T00:57:08;1.90;;;1.80;;
15876;SDS011;8037;51.666;7.834;2023-07-08T00:59:41;2.37;;;1.83;;
15876;SDS011;8037;51.666;7.834;2023-07-08T01:02:09;2.03;;;1.93;;
15876;SDS011;8037;51.666;7.834;2023-07-08T01:07:21;3.43;;;1.57;;
15876;SDS011;8037;51.666;7.834;2023-07-08T01:09:48;1.63;;;1.53;;
15876;SDS011;8037;51.666;7.834;2023-07-08T01:12:19;3.30;;;2.10;;
15876;SDS011;8037;51.666;7.834;2023-07-08T01:14:46;3.43;;;1.77;;
15876;SDS011;8037;51.666;7.834;2023-07-08T01:17:13;4.40;;;1.80;;
15876;SDS011;8037;51.666;7.834;2023-07-08T01:19:42;4.27;;;1.40;;
15876;SDS011;8037;51.666;7.834;2023-07-08T01:22:09;3.90;;;1.70;;
15876;SDS011;8037;51.666;7.834;2023-07-08T01:24:36;2.60;;;1.70;;
15876;SDS011;8037;51.666;7.834;2023-07-08T01:27:04;1.77;;;1.67;;
15876;SDS011;8037;51.666;7.834;2023-07-08T01:29:31;8.80;;;1.97;;
15876;SDS011;8037;51.666;7.834;2023-07-08T01:31:57;1.63;;;1.53;;
15876;SDS011;8037;51.666;7.834;2023-07-08T01:34:23;1.90;;;1.80;;
15876;SDS011;8037;51.666;7.834;2023-07-08T01:36:50;3.20;;;1.80;;
15876;SDS011;8037;51.666;7.834;2023-07-08T01:39:18;1.97;;;1.80;;
15876;SDS011;8037;51.666;7.834;2023-07-08T01:41:45;1.93;;;1.60;;
15876;SDS011;8037;51.666;7.834;2023-07-08T01:44:21;2.20;;;2.00;;
15876;SDS011;8037;51.666;7.834;2023-07-08T01:46:47;3.60;;;1.80;;
15876;SDS011;8037;51.666;7.834;2023-07-08T01:49:13;1.70;;;1.20;;
15876;SDS011;8037;51.666;7.834;2023-07-08T01:51:39;1.87;;;1.77;;
15876;SDS011;8037;51.666;7.834;2023-07-08T01:54:05;2.90;;;2.23;;
15876;SDS011;8037;51.666;7.834;2023-07-08T01:56:31;1.67;;;1.53;;
15876;SDS011;8037;51.666;7.834;2023-07-08T01:58:57;3.90;;;1.47;;
15876;SDS011;8037;51.666;7.834;2023-07-08T02:01:23;1.90;;;1.80;;
15876;SDS011;8037;51.666;7.834;2023-07-08T02:03:49;1.90;;;1.80;;
15876;SDS011;8037;51.666;7.834;2023-07-08T02:06:15;3.00;;;1.93;;
15876;SDS011;8037;51.666;7.834;2023-07-08T02:08:41;2.60;;;1.57;;
15876;SDS011;8037;51.666;7.834;2023-07-08T02:11:06;2.07;;;1.63;;
15876;SDS011;8037;51.666;7.834;2023-07-08T02:13:32;2.00;;;1.90;;
15876;SDS011;8037;51.666;7.834;2023-07-08T02:15:58;2.30;;;1.80;;
15876;SDS011;8037;51.666;7.834;2023-07-08T02:18:24;1.53;;;1.43;;
15876;SDS011;8037;51.666;7.834;2023-07-08T02:20:50;1.83;;;1.70;;
15876;SDS011;8037;51.666;7.834;2023-07-08T02:23:16;3.23;;;1.93;;
15876;SDS011;8037;51.666;7.834;2023-07-08T02:25:49;2.10;;;2.00;;
15876;SDS011;8037;51.666;7.834;2023-07-08T02:28:16;1.57;;;1.47;;
15876;SDS011;8037;51.666;7.834;2023-07-08T02:30:42;3.57;;;2.27;;
15876;SDS011;8037;51.666;7.834;2023-07-08T02:33:08;2.40;;;2.20;;
15876;SDS011;8037;51.666;7.834;2023-07-08T02:35:34;3.27;;;1.67;;
15876;SDS011;8037;51.666;7.834;2023-07-08T02:38:00;1.97;;;1.67;;
15876;SDS011;8037;51.666;7.834;2023-07-08T02:40:28;4.23;;;2.33;;
15876;SDS011;8037;51.666;7.834;2023-07-08T02:42:54;1.70;;;1.60;;
15876;SDS011;8037;51.666;7.834;2023-07-08T02:45:20;3.20;;;1.80;;
15876;SDS011;8037;51.666;7.834;2023-07-08T02:47:46;2.40;;;2.20;;
15876;SDS011;8037;51.666;7.834;2023-07-08T02:50:12;2.13;;;1.87;;
15876;SDS011;8037;51.666;7.834;2023-07-08T02:52:38;1.97;;;1.83;;
15876;SDS011;8037;51.666;7.834;2023-07-08T02:55:04;2.73;;;2.10;;
15876;SDS011;8037;51.666;7.834;2023-07-08T02:57:30;1.93;;;1.70;;
15876;SDS011;8037;51.666;7.834;2023-07-08T02:59:56;5.37;;;1.97;;
15876;SDS011;8037;51.666;7.834;2023-07-08T03:02:22;18.63;;;1.97;;
15876;SDS011;8037;51.666;7.834;2023-07-08T03:04:48;2.80;;;2.30;;
15876;SDS011;8037;51.666;7.834;2023-07-08T03:07:16;1.87;;;1.77;;
15876;SDS011;8037;51.666;7.834;2023-07-08T03:09:42;2.20;;;2.00;;
15876;SDS011;8037;51.666;7.834;2023-07-08T03:12:08;2.40;;;2.00;;
15876;SDS011;8037;51.666;7.834;2023-07-08T03:14:35;2.10;;;1.70;;
15876;SDS011;8037;51.666;7.834;2023-07-08T03:17:01;5.33;;;2.00;;
15876;SDS011;8037;51.666;7.834;2023-07-08T03:19:27;2.30;;;1.20;;
15876;SDS011;8037;51.666;7.834;2023-07-08T03:21:53;1.53;;;1.30;;
15876;SDS011;8037;51.666;7.834;2023-07-08T03:24:19;2.00;;;1.90;;
15876;SDS011;8037;51.666;7.834;2023-07-08T03:26:45;2.60;;;2.13;;
15876;SDS011;8037;51.666;7.834;2023-07-08T03:29:13;1.97;;;1.87;;
15876;SDS011;8037;51.666;7.834;2023-07-08T03:31:40;1.70;;;1.60;;
15876;SDS011;8037;51.666;7.834;2023-07-08T03:34:07;2.17;;;2.07;;
15876;SDS011;8037;51.666;7.834;2023-07-08T03:36:35;2.30;;;2.20;;
15876;SDS011;8037;51.666;7.834;2023-07-08T03:39:01;2.43;;;2.23;;
15876;SDS011;8037;51.666;7.834;2023-07-08T03:41:27;2.13;;;1.83;;
15876;SDS011;8037;51.666;7.834;2023-07-08T03:43:53;1.77;;;1.67;;
15876;SDS011;8037;51.666;7.834;2023-07-08T03:46:19;2.17;;;2.07;;
15876;SDS011;8037;51.666;7.834;2023-07-08T03:48:46;2.00;;;1.57;;
15876;SDS011;8037;51.666;7.834;2023-07-08T03:51:17;4.43;;;2.10;;
15876;SDS011;8037;51.666;7.834;2023-07-08T03:53:45;2.00;;;1.90;;
15876;SDS011;8037;51.666;7.834;2023-07-08T03:56:12;1.90;;;1.80;;
15876;SDS011;8037;51.666;7.834;2023-07-08T03:58:38;1.67;;;1.47;;
15876;SDS011;8037;51.666;7.834;2023-07-08T04:01:04;2.27;;;1.60;;
15876;SDS011;8037;51.666;7.834;2023-07-08T04:03:30;2.10;;;2.00;;
15876;SDS011;8037;51.666;7.834;2023-07-08T04:05:56;2.13;;;2.00;;
15876;SDS011;8037;51.666;7.834;2023-07-08T04:08:22;5.07;;;1.50;;
15876;SDS011;8037;51.666;7.834;2023-07-08T04:10:48;2.80;;;1.47;;
15876;SDS011;8037;51.666;7.834;2023-07-08T04:13:14;1.97;;;1.87;;
15876;SDS011;8037;51.666;7.834;2023-07-08T04:15:40;3.37;;;1.73;;
15876;SDS011;8037;51.666;7.834;2023-07-08T04:18:05;2.03;;;1.47;;
15876;SDS011;8037;51.666;7.834;2023-07-08T04:20:31;1.77;;;1.67;;
15876;SDS011;8037;51.666;7.834;2023-07-08T04:22:58;2.40;;;1.83;;
15876;SDS011;8037;51.666;7.834;2023-07-08T04:25:24;1.60;;;1.50;;
15876;SDS011;8037;51.666;7.834;2023-07-08T04:27:50;3.80;;;1.53;;
15876;SDS011;8037;51.666;7.834;2023-07-08T04:30:23;1.00;;;1.00;;
15876;SDS011;8037;51.666;7.834;2023-07-08T04:32:50;1.40;;;1.30;;
15876;SDS011;8037;51.666;7.834;2023-07-08T04:35:17;1.57;;;1.40;;
15876;SDS011;8037;51.666;7.834;2023-07-08T04:37:43;2.43;;;1.13;;
15876;SDS011;8037;51.666;7.834;2023-07-08T04:40:14;1.20;;;1.20;;
15876;SDS011;8037;51.666;7.834;2023-07-08T04:42:43;6.10;;;1.30;;
15876;SDS011;8037;51.666;7.834;2023-07-08T04:45:12;1.63;;;1.23;;
15876;SDS011;8037;51.666;7.834;2023-07-08T04:47:38;3.40;;;1.30;;
15876;SDS011;8037;51.666;7.834;2023-07-08T04:50:04;2.70;;;1.10;;
15876;SDS011;8037;51.666;7.834;2023-07-08T04:52:30;1.03;;;1.03;;
15876;SDS011;8037;51.666;7.834;2023-07-08T04:54:56;8.23;;;1.10;;
15876;SDS011;8037;51.666;7.834;2023-07-08T04:57:22;1.23;;;0.97;;
15876;SDS011;8037;51.666;7.834;2023-07-08T04:59:48;1.37;;;1.27;;
15876;SDS011;8037;51.666;7.834;2023-07-08T05:02:14;1.13;;;1.13;;
15876;SDS011;8037;51.666;7.834;2023-07-08T05:04:39;2.77;;;1.50;;
15876;SDS011;8037;51.666;7.834;2023-07-08T05:07:05;1.20;;;1.10;;
15876;SDS011;8037;51.666;7.834;2023-07-08T05:09:31;1.37;;;1.03;;
15876;SDS011;8037;51.666;7.834;2023-07-08T05:11:57;1.27;;;1.17;;
15876;SDS011;8037;51.666;7.834;2023-07-08T05:14:23;1.40;;;1.30;;
15876;SDS011;8037;51.666;7.834;2023-07-08T05:16:49;5.83;;;1.17;;
15876;SDS011;8037;51.666;7.834;2023-07-08T05:19:15;0.83;;;0.80;;
15876;SDS011;8037;51.666;7.834;2023-07-08T05:21:41;1.60;;;1.50;;
15876;SDS011;8037;51.666;7.834;2023-07-08T05:24:08;1.47;;;1.07;;
15876;SDS011;8037;51.666;7.834;2023-07-08T05:26:34;4.27;;;1.90;;
15876;SDS011;8037;51.666;7.834;2023-07-08T05:28:59;1.43;;;1.33;;
15876;SDS011;8037;51.666;7.834;2023-07-08T05:31:25;3.53;;;1.53;;
15876;SDS011;8037;51.666;7.834;2023-07-08T05:33:51;2.20;;;1.00;;
15876;SDS011;8037;51.666;7.834;2023-07-08T05:36:17;1.40;;;1.30;;
15876;SDS011;8037;51.666;7.834;2023-07-08T05:38:42;1.30;;;1.20;;
15876;SDS011;8037;51.666;7.834;2023-07-08T05:41:08;1.57;;;1.27;;
15876;SDS011;8037;51.666;7.834;2023-07-08T05:43:34;1.00;;;1.00;;
15876;SDS011;8037;51.666;7.834;2023-07-08T05:46:00;3.57;;;1.27;;
15876;SDS011;8037;51.666;7.834;2023-07-08T05:48:26;1.17;;;1.17;;
15876;SDS011;8037;51.666;7.834;2023-07-08T05:50:52;11.30;;;1.57;;
15876;SDS011;8037;51.666;7.834;2023-07-08T05:53:19;1.50;;;1.40;;
15876;SDS011;8037;51.666;7.834;2023-07-08T05:55:45;11.33;;;1.50;;
15876;SDS011;8037;51.666;7.834;2023-07-08T05:58:12;1.30;;;1.07;;
15876;SDS011;8037;51.666;7.834;2023-07-08T06:00:40;1.40;;;1.30;;
15876;SDS011;8037;51.666;7.834;2023-07-08T06:03:07;1.53;;;1.43;;
15876;SDS011;8037;51.666;7.834;2023-07-08T06:05:32;1.40;;;1.30;;
15876;SDS011;8037;51.666;7.834;2023-07-08T06:07:59;1.57;;;1.43;;
15876;SDS011;8037;51.666;7.834;2023-07-08T06:10:24;1.33;;;1.23;;
15876;SDS011;8037;51.666;7.834;2023-07-08T06:12:50;1.20;;;1.20;;
15876;SDS011;8037;51.666;7.834;2023-07-08T06:15:16;2.20;;;2.03;;
15876;SDS011;8037;51.666;7.834;2023-07-08T06:17:42;1.67;;;1.57;;
15876;SDS011;8037;51.666;7.834;2023-07-08T06:20:10;1.50;;;1.40;;
15876;SDS011;8037;51.666;7.834;2023-07-08T06:22:36;1.87;;;1.77;;
15876;SDS011;8037;51.666;7.834;2023-07-08T06:25:02;2.10;;;1.60;;
15876;SDS011;8037;51.666;7.834;2023-07-08T06:27:28;1.70;;;1.53;;
15876;SDS011;8037;51.666;7.834;2023-07-08T06:29:56;5.70;;;1.30;;
15876;SDS011;8037;51.666;7.834;2023-07-08T06:32:21;1.40;;;1.20;;
15876;SDS011;8037;51.666;7.834;2023-07-08T06:34:47;4.83;;;2.07;;
15876;SDS011;8037;51.666;7.834;2023-07-08T06:37:13;2.57;;;1.90;;
15876;SDS011;8037;51.666;7.834;2023-07-08T06:39:39;7.33;;;1.13;;
15876;SDS011;8037;51.666;7.834;2023-07-08T06:42:05;2.20;;;2.00;;
15876;SDS011;8037;51.666;7.834;2023-07-08T06:44:31;3.60;;;1.50;;
15876;SDS011;8037;51.666;7.834;2023-07-08T06:46:57;5.17;;;2.10;;
15876;SDS011;8037;51.666;7.834;2023-07-08T06:49:23;3.70;;;1.60;;
15876;SDS011;8037;51.666;7.834;2023-07-08T06:51:49;1.73;;;1.63;;
15876;SDS011;8037;51.666;7.834;2023-07-08T06:54:14;3.23;;;1.50;;
15876;SDS011;8037;51.666;7.834;2023-07-08T06:56:43;6.40;;;2.83;;
15876;SDS011;8037;51.666;7.834;2023-07-08T06:59:09;10.10;;;1.97;;
15876;SDS011;8037;51.666;7.834;2023-07-08T07:01:35;2.00;;;1.90;;
15876;SDS011;8037;51.666;7.834;2023-07-08T07:04:04;1.47;;;1.37;;
15876;SDS011;8037;51.666;7.834;2023-07-08T07:06:30;2.13;;;1.40;;
15876;SDS011;8037;51.666;7.834;2023-07-08T07:08:56;2.53;;;1.43;;
15876;SDS011;8037;51.666;7.834;2023-07-08T07:11:22;1.67;;;1.53;;
15876;SDS011;8037;51.666;7.834;2023-07-08T07:13:47;3.20;;;1.80;;
15876;SDS011;8037;51.666;7.834;2023-07-08T07:16:13;3.77;;;3.57;;
15876;SDS011;8037;51.666;7.834;2023-07-08T07:18:39;4.50;;;2.17;;
15876;SDS011;8037;51.666;7.834;2023-07-08T07:21:05;2.67;;;2.00;;
15876;SDS011;8037;51.666;7.834;2023-07-08T07:23:31;3.47;;;1.80;;
15876;SDS011;8037;51.666;7.834;2023-07-08T07:25:57;1.70;;;1.60;;
15876;SDS011;8037;51.666;7.834;2023-07-08T07:28:23;10.53;;;1.93;;
15876;SDS011;8037;51.666;7.834;2023-07-08T07:30:55;1.87;;;1.77;;
15876;SDS011;8037;51.666;7.834;2023-07-08T07:33:24;5.93;;;2.33;;
15876;SDS011;8037;51.666;7.834;2023-07-08T07:35:50;2.43;;;1.73;;
15876;SDS011;8037;51.666;7.834;2023-07-08T07:38:16;2.20;;;1.83;;
15876;SDS011;8037;51.666;7.834;2023-07-08T07:40:43;1.30;;;1.30;;
15876;SDS011;8037;51.666;7.834;2023-07-08T07:43:09;11.90;;;2.13;;
15876;SDS011;8037;51.666;7.834;2023-07-08T07:45:35;3.63;;;2.63;;
15876;SDS011;8037;51.666;7.834;2023-07-08T07:48:01;1.47;;;1.37;;
15876;SDS011;8037;51.666;7.834;2023-07-08T07:50:27;2.10;;;1.90;;
15876;SDS011;8037;51.666;7.834;2023-07-08T07:52:53;1.63;;;1.53;;
15876;SDS011;8037;51.666;7.834;2023-07-08T07:55:19;4.00;;;2.00;;
15876;SDS011;8037;51.666;7.834;2023-07-08T07:57:45;4.23;;;1.97;;
15876;SDS011;8037;51.666;7.834;2023-07-08T08:00:12;1.97;;;1.67;;
15876;SDS011;8037;51.666;7.834;2023-07-08T08:02:39;6.53;;;2.17;;
15876;SDS011;8037;51.666;7.834;2023-07-08T08:05:05;2.43;;;2.23;;
15876;SDS011;8037;51.666;7.834;2023-07-08T08:07:31;2.20;;;2.00;;
15876;SDS011;8037;51.666;7.834;2023-07-08T08:09:57;3.47;;;2.00;;
15876;SDS011;8037;51.666;7.834;2023-07-08T08:12:23;2.80;;;2.03;;
15876;SDS011;8037;51.666;7.834;2023-07-08T08:14:50;2.83;;;2.00;;
15876;SDS011;8037;51.666;7.834;2023-07-08T08:17:15;2.47;;;2.30;;
15876;SDS011;8037;51.666;7.834;2023-07-08T08:19:42;3.63;;;2.23;;
15876;SDS011;8037;51.666;7.834;2023-07-08T08:22:08;7.20;;;2.60;;
15876;SDS011;8037;51.666;7.834;2023-07-08T08:24:34;2.50;;;2.03;;
15876;SDS011;8037;51.666;7.834;2023-07-08T08:27:00;2.57;;;2.30;;
15876;SDS011;8037;51.666;7.834;2023-07-08T08:29:25;2.33;;;2.07;;
15876;SDS011;8037;51.666;7.834;2023-07-08T08:31:51;2.40;;;2.20;;
15876;SDS011;8037;51.666;7.834;2023-07-08T08:34:19;8.30;;;2.07;;
15876;SDS011;8037;51.666;7.834;2023-07-08T08:36:45;1.90;;;1.80;;
15876;SDS011;8037;51.666;7.834;2023-07-08T08:39:11;3.20;;;3.00;;
15876;SDS011;8037;51.666;7.834;2023-07-08T08:41:38;3.00;;;2.40;;
15876;SDS011;8037;51.666;7.834;2023-07-08T08:44:06;2.30;;;2.20;;
15876;SDS011;8037;51.666;7.834;2023-07-08T08:46:49;2.57;;;2.37;;
15876;SDS011;8037;51.666;7.834;2023-07-08T08:49:57;2.20;;;2.00;;
15876;SDS011;8037;51.666;7.834;2023-07-08T08:52:28;2.50;;;2.30;;
15876;SDS011;8037;51.666;7.834;2023-07-08T08:54:54;5.50;;;2.40;;
15876;SDS011;8037;51.666;7.834;2023-07-08T08:57:31;2.53;;;2.10;;
15876;SDS011;8037;51.666;7.834;2023-07-08T09:00:07;2.30;;;2.17;;
15876;SDS011;8037;51.666;7.834;2023-07-08T09:02:42;2.67;;;2.43;;
15876;SDS011;8037;51.666;7.834;2023-07-08T09:05:22;2.57;;;2.37;;
15876;SDS011;8037;51.666;7.834;2023-07-08T09:11:00;2.63;;;2.40;;
15876;SDS011;8037;51.666;7.834;2023-07-08T09:13:29;19.23;;;2.57;;
15876;SDS011;8037;51.666;7.834;2023-07-08T09:16:18;2.83;;;2.60;;
15876;SDS011;8037;51.666;7.834;2023-07-08T09:19:44;2.83;;;2.63;;
15876;SDS011;8037;51.666;7.834;2023-07-08T09:21:48;3.67;;;2.80;;
15876;SDS011;8037;51.666;7.834;2023-07-08T09:27:07;7.30;;;2.50;;
15876;SDS011;8037;51.666;7.834;2023-07-08T09:29:33;7.73;;;2.27;;
15876;SDS011;8037;51.666;7.834;2023-07-08T09:32:00;2.40;;;2.00;;
15876;SDS011;8037;51.666;7.834;2023-07-08T09:34:42;3.23;;;3.03;;
15876;SDS011;8037;51.666;7.834;2023-07-08T09:37:21;2.20;;;2.10;;
15876;SDS011;8037;51.666;7.834;2023-07-08T09:39:55;3.00;;;2.80;;
15876;SDS011;8037;51.666;7.834;2023-07-08T09:42:22;7.60;;;2.70;;
15876;SDS011;8037;51.666;7.834;2023-07-08T09:44:54;4.20;;;2.67;;
15876;SDS011;8037;51.666;7.834;2023-07-08T09:47:22;2.57;;;2.40;;
15876;SDS011;8037;51.666;7.834;2023-07-08T09:49:51;5.03;;;2.80;;
15876;SDS011;8037;51.666;7.834;2023-07-08T09:52:18;5.33;;;2.50;;
15876;SDS011;8037;51.666;7.834;2023-07-08T09:54:45;2.50;;;2.30;;
15876;SDS011;8037;51.666;7.834;2023-07-08T09:57:24;3.87;;;2.60;;
15876;SDS011;8037;51.666;7.834;2023-07-08T09:59:55;3.37;;;2.70;;
15876;SDS011;8037;51.666;7.834;2023-07-08T10:02:49;2.60;;;2.40;;
15876;SDS011;8037;51.666;7.834;2023-07-08T10:05:29;3.90;;;3.07;;
15876;SDS011;8037;51.666;7.834;2023-07-08T10:07:56;5.67;;;3.50;;
15876;SDS011;8037;51.666;7.834;2023-07-08T10:10:24;3.43;;;3.07;;
15876;SDS011;8037;51.666;7.834;2023-07-08T10:12:55;2.63;;;2.43;;
15876;SDS011;8037;51.666;7.834;2023-07-08T10:15:27;3.87;;;2.80;;
15876;SDS011;8037;51.666;7.834;2023-07-08T10:17:55;3.33;;;3.13;;
15876;SDS011;8037;51.666;7.834;2023-07-08T10:20:21;5.23;;;3.30;;
15876;SDS011;8037;51.666;7.834;2023-07-08T10:27:54;4.40;;;3.10;;
15876;SDS011;8037;51.666;7.834;2023-07-08T10:30:38;3.43;;;2.97;;
15876;SDS011;8037;51.666;7.834;2023-07-08T10:33:17;9.60;;;3.10;;
15876;SDS011;8037;51.666;7.834;2023-07-08T10:35:49;6.70;;;2.60;;
15876;SDS011;8037;51.666;7.834;2023-07-08T10:40:54;4.77;;;3.27;;
15876;SDS011;8037;51.666;7.834;2023-07-08T10:43:58;7.67;;;3.47;;
15876;SDS011;8037;51.666;7.834;2023-07-08T10:51:31;9.30;;;3.83;;
15876;SDS011;8037;51.666;7.834;2023-07-08T10:54:05;6.70;;;3.77;;
15876;SDS011;8037;51.666;7.834;2023-07-08T10:56:35;2.47;;;2.27;;
15876;SDS011;8037;51.666;7.834;2023-07-08T10:59:19;3.97;;;3.57;;
15876;SDS011;8037;51.666;7.834;2023-07-08T11:07:45;4.90;;;3.80;;
15876;SDS011;8037;51.666;7.834;2023-07-08T11:09:56;5.90;;;3.60;;
15876;SDS011;8037;51.666;7.834;2023-07-08T11:12:27;4.33;;;3.93;;
15876;SDS011;8037;51.666;7.834;2023-07-08T11:15:04;3.80;;;3.40;;
15876;SDS011;8037;51.666;7.834;2023-07-08T11:17:38;8.00;;;3.93;;
15876;SDS011;8037;51.666;7.834;2023-07-08T11:23:03;3.70;;;3.37;;
15876;SDS011;8037;51.666;7.834;2023-07-08T11:25:33;5.87;;;3.57;;
15876;SDS011;8037;51.666;7.834;2023-07-08T11:28:02;5.37;;;3.40;;
15876;SDS011;8037;51.666;7.834;2023-07-08T11:30:29;4.73;;;3.50;;
15876;SDS011;8037;51.666;7.834;2023-07-08T11:33:00;5.03;;;3.90;;
15876;SDS011;8037;51.666;7.834;2023-07-08T11:35:34;5.87;;;4.30;;
15876;SDS011;8037;51.666;7.834;2023-07-08T11:38:01;6.80;;;3.97;;
15876;SDS011;8037;51.666;7.834;2023-07-08T11:40:28;4.97;;;4.10;;
15876;SDS011;8037;51.666;7.834;2023-07-08T11:43:00;4.30;;;3.90;;
15876;SDS011;8037;51.666;7.834;2023-07-08T11:45:31;5.13;;;3.83;;
15876;SDS011;8037;51.666;7.834;2023-07-08T11:48:05;4.93;;;4.10;;
15876;SDS011;8037;51.666;7.834;2023-07-08T11:50:41;6.00;;;3.57;;
15876;SDS011;8037;51.666;7.834;2023-07-08T11:53:14;4.00;;;3.70;;
15876;SDS011;8037;51.666;7.834;2023-07-08T11:56:00;3.93;;;3.50;;
15876;SDS011;8037;51.666;7.834;2023-07-08T12:04:20;9.10;;;3.97;;
15876;SDS011;8037;51.666;7.834;2023-07-08T12:06:52;7.77;;;3.80;;
15876;SDS011;8037;51.666;7.834;2023-07-08T12:09:27;4.43;;;4.00;;
15876;SDS011;8037;51.666;7.834;2023-07-08T12:11:57;4.87;;;3.37;;
15876;SDS011;8037;51.666;7.834;2023-07-08T12:14:26;6.33;;;4.50;;
15876;SDS011;8037;51.666;7.834;2023-07-08T12:16:52;5.40;;;3.93;;
15876;SDS011;8037;51.666;7.834;2023-07-08T12:19:18;4.80;;;4.30;;
15876;SDS011;8037;51.666;7.834;2023-07-08T12:21:46;4.70;;;3.90;;
15876;SDS011;8037;51.666;7.834;2023-07-08T12:24:12;4.23;;;3.77;;
15876;SDS011;8037;51.666;7.834;2023-07-08T12:26:39;4.57;;;3.93;;
15876;SDS011;8037;51.666;7.834;2023-07-08T12:29:05;3.87;;;3.20;;
15876;SDS011;8037;51.666;7.834;2023-07-08T12:31:31;4.10;;;3.67;;
15876;SDS011;8037;51.666;7.834;2023-07-08T12:33:58;4.50;;;3.73;;
15876;SDS011;8037;51.666;7.834;2023-07-08T12:36:28;4.27;;;3.80;;
15876;SDS011;8037;51.666;7.834;2023-07-08T12:38:57;3.70;;;3.17;;
15876;SDS011;8037;51.666;7.834;2023-07-08T12:41:27;19.80;;;4.50;;
15876;SDS011;8037;51.666;7.834;2023-07-08T12:43:54;6.63;;;4.37;;
15876;SDS011;8037;51.666;7.834;2023-07-08T12:46:21;4.80;;;3.50;;
15876;SDS011;8037;51.666;7.834;2023-07-08T12:48:48;4.20;;;3.80;;
15876;SDS011;8037;51.666;7.834;2023-07-08T12:51:15;4.10;;;3.70;;
15876;SDS011;8037;51.666;7.834;2023-07-08T12:53:42;4.10;;;3.77;;
15876;SDS011;8037;51.666;7.834;2023-07-08T12:56:08;3.33;;;3.13;;
15876;SDS011;8037;51.666;7.834;2023-07-08T12:58:37;5.60;;;3.73;;
15876;SDS011;8037;51.666;7.834;2023-07-08T13:01:04;4.70;;;4.17;;
15876;SDS011;8037;51.666;7.834;2023-07-08T13:03:33;8.93;;;4.17;;
15876;SDS011;8037;51.666;7.834;2023-07-08T13:06:00;4.40;;;3.27;;
15876;SDS011;8037;51.666;7.834;2023-07-08T13:08:27;4.90;;;3.97;;
15876;SDS011;8037;51.666;7.834;2023-07-08T13:10:55;4.03;;;3.67;;
15876;SDS011;8037;51.666;7.834;2023-07-08T13:13:27;3.93;;;3.53;;
15876;SDS011;8037;51.666;7.834;2023-07-08T13:15:54;4.17;;;3.87;;
15876;SDS011;8037;51.666;7.834;2023-07-08T13:18:35;5.50;;;4.07;;
15876;SDS011;8037;51.666;7.834;2023-07-08T13:21:02;5.70;;;3.50;;
15876;SDS011;8037;51.666;7.834;2023-07-08T13:23:29;4.37;;;3.90;;
15876;SDS011;8037;51.666;7.834;2023-07-08T13:25:55;6.67;;;4.13;;
15876;SDS011;8037;51.666;7.834;2023-07-08T13:30:57;5.60;;;3.40;;
15876;SDS011;8037;51.666;7.834;2023-07-08T13:33:28;4.50;;;3.37;;
15876;SDS011;8037;51.666;7.834;2023-07-08T13:35:54;6.80;;;3.97;;
15876;SDS011;8037;51.666;7.834;2023-07-08T13:38:22;4.30;;;3.90;;
15876;SDS011;8037;51.666;7.834;2023-07-08T13:40:51;5.00;;;3.23;;
15876;SDS011;8037;51.666;7.834;2023-07-08T13:43:22;4.73;;;3.50;;
15876;SDS011;8037;51.666;7.834;2023-07-08T13:45:49;10.90;;;4.20;;
15876;SDS011;8037;51.666;7.834;2023-07-08T13:48:25;5.63;;;3.83;;
15876;SDS011;8037;51.666;7.834;2023-07-08T13:51:02;3.83;;;3.53;;
15876;SDS011;8037;51.666;7.834;2023-07-08T13:53:48;9.97;;;3.87;;
15876;SDS011;8037;51.666;7.834;2023-07-08T13:56:22;4.93;;;4.07;;
15876;SDS011;8037;51.666;7.834;2023-07-08T13:58:50;6.83;;;4.20;;
15876;SDS011;8037;51.666;7.834;2023-07-08T14:01:18;4.00;;;3.57;;
15876;SDS011;8037;51.666;7.834;2023-07-08T14:03:44;4.90;;;3.57;;
15876;SDS011;8037;51.666;7.834;2023-07-08T14:06:14;5.37;;;3.83;;
15876;SDS011;8037;51.666;7.834;2023-07-08T14:08:40;5.47;;;4.07;;
15876;SDS011;8037;51.666;7.834;2023-07-08T14:11:06;5.33;;;3.47;;
15876;SDS011;8037;51.666;7.834;2023-07-08T14:13:33;3.47;;;3.17;;
15876;SDS011;8037;51.666;7.834;2023-07-08T14:15:59;5.00;;;3.73;;
15876;SDS011;8037;51.666;7.834;2023-07-08T14:18:25;4.40;;;3.60;;
15876;SDS011;8037;51.666;7.834;2023-07-08T14:20:51;4.03;;;3.70;;
15876;SDS011;8037;51.666;7.834;2023-07-08T14:23:17;5.00;;;3.20;;
15876;SDS011;8037;51.666;7.834;2023-07-08T14:25:44;3.93;;;3.00;;
15876;SDS011;8037;51.666;7.834;2023-07-08T14:28:10;6.63;;;3.73;;
15876;SDS011;8037;51.666;7.834;2023-07-08T14:30:46;4.80;;;3.80;;
15876;SDS011;8037;51.666;7.834;2023-07-08T14:33:13;5.10;;;3.70;;
15876;SDS011;8037;51.666;7.834;2023-07-08T14:35:39;6.10;;;4.40;;
15876;SDS011;8037;51.666;7.834;2023-07-08T14:38:12;4.27;;;3.60;;
15876;SDS011;8037;51.666;7.834;2023-07-08T14:40:39;11.40;;;4.23;;
15876;SDS011;8037;51.666;7.834;2023-07-08T14:43:06;5.50;;;3.80;;
15876;SDS011;8037;51.666;7.834;2023-07-08T14:45:39;5.57;;;3.33;;
15876;SDS011;8037;51.666;7.834;2023-07-08T14:48:09;3.63;;;3.33;;
15876;SDS011;8037;51.666;7.834;2023-07-08T14:50:35;3.70;;;3.30;;
15876;SDS011;8037;51.666;7.834;2023-07-08T14:53:02;7.67;;;6.10;;
15876;SDS011;8037;51.666;7.834;2023-07-08T14:55:28;3.80;;;3.37;;
15876;SDS011;8037;51.666;7.834;2023-07-08T14:57:54;7.10;;;2.93;;
15876;SDS011;8037;51.666;7.834;2023-07-08T15:00:21;3.40;;;3.10;;
15876;SDS011;8037;51.666;7.834;2023-07-08T15:02:48;3.50;;;3.20;;
15876;SDS011;8037;51.666;7.834;2023-07-08T15:07:41;3.80;;;3.50;;
15876;SDS011;8037;51.666;7.834;2023-07-08T15:10:07;4.20;;;3.73;;
15876;SDS011;8037;51.666;7.834;2023-07-08T15:12:33;4.87;;;3.57;;
15876;SDS011;8037;51.666;7.834;2023-07-08T15:14:59;4.20;;;3.90;;
15876;SDS011;8037;51.666;7.834;2023-07-08T15:17:25;3.27;;;2.97;;
15876;SDS011;8037;51.666;7.834;2023-07-08T15:19:51;6.77;;;3.97;;
15876;SDS011;8037;51.666;7.834;2023-07-08T15:22:17;5.00;;;3.23;;
15876;SDS011;8037;51.666;7.834;2023-07-08T15:24:43;5.20;;;3.67;;
15876;SDS011;8037;51.666;7.834;2023-07-08T15:27:10;4.93;;;2.63;;
15876;SDS011;8037;51.666;7.834;2023-07-08T15:29:37;3.63;;;3.33;;
15876;SDS011;8037;51.666;7.834;2023-07-08T15:32:03;11.17;;;3.50;;
15876;SDS011;8037;51.666;7.834;2023-07-08T15:34:29;3.57;;;3.27;;
15876;SDS011;8037;51.666;7.834;2023-07-08T15:36:55;3.80;;;3.30;;
15876;SDS011;8037;51.666;7.834;2023-07-08T15:39:21;3.70;;;3.40;;
15876;SDS011;8037;51.666;7.834;2023-07-08T15:41:47;3.50;;;2.67;;
15876;SDS011;8037;51.666;7.834;2023-07-08T15:44:14;3.47;;;3.10;;
15876;SDS011;8037;51.666;7.834;2023-07-08T15:46:41;4.53;;;2.97;;
15876;SDS011;8037;51.666;7.834;2023-07-08T15:49:14;6.10;;;3.00;;